Sipesville, PA (15561)

5:51 PM EDT on July 26, 2016 (GMT -0400)
APRSWXNET | | Change Station

Elev 1968 ft 40.12 °N, 79.10 °W | Updated 31 minutes ago

Mostly Cloudy
Mostly Cloudy
82 °F
Feels Like 84 °F
N
4
Wind Variable Wind from WNW
Gusts 0.0 mph

Today
High -- | Low -- °F
--% Chance of Precip.
Yesterday
High -- | Low -- °F
Precip. -- in
Pressure 30.01 in
Visibility 15.0 miles
Clouds Scattered Clouds 4000 ft
Mostly Cloudy 15000 ft
Heat Index 84 °F
Dew Point 66 °F
Humidity 59%
Rainfall in
Snow Depth Not available.
6:09 AM 8:35 PM
Waning Gibbous, 50% visible
METAR KLBE 262050Z 32006KT 15SM SCT040 BKN150 30/18 A3001
Pressure 30.01 in
Visibility 15.0 miles
Clouds Scattered Clouds 4000 ft
Mostly Cloudy 15000 ft
Heat Index 84 °F
Dew Point 66 °F
Humidity 59%
Rainfall in
Snow Depth Not available.
6:09 AM 8:35 PM
Waning Gibbous, 50% visible
METAR KLBE 262050Z 32006KT 15SM SCT040 BKN150 30/18 A3001

10-Day Weather Forecast

Almanac

Astronomy

Jul. 26, 2016 Rise Set
Actual Time
Civil Twilight
Nautical Twilight
Astronomical Twilight
Moon
Length of Visible Light
Length of Day
Tomorrow will be .
, % of the Moon is Illuminated

Today's Extremes

State Highs State Lows

Community

WunderPhotos

Upload Photos

1,927,702 photos uploaded!

WunderBlog® & News

Nearby

Air Quality

  Air Quality AQ Index Pollutant
Not available.

Snow Depth

Station Depth Elevation

Earthquake Activity

City Distance Mag. Time & Date
Minimum magnitude displayed is 2.5.

Coastal Water Temperatures

Place Temperature

Stations

Nearby Weather Stations

Station Location Temp. Windchill Dew Point Humidity Wind Precip. Elev Updated Type
                   

Watches & Warnings

There are currently no watches in effect.